createdAt,value
2023-09-23T00:01:22.095Z,23.80
2023-09-23T00:03:51.043Z,23.80
2023-09-23T00:06:22.135Z,23.80
2023-09-23T00:08:51.904Z,23.80
2023-09-23T00:11:20.634Z,23.80
2023-09-23T00:13:49.502Z,23.80
2023-09-23T00:16:20.786Z,23.80
2023-09-23T00:18:49.600Z,23.80
2023-09-23T00:21:18.267Z,23.80
2023-09-23T00:23:48.238Z,23.70
2023-09-23T00:26:19.051Z,23.70
2023-09-23T00:28:48.233Z,23.70
2023-09-23T00:31:20.142Z,23.70
2023-09-23T00:33:50.125Z,23.70
2023-09-23T00:36:19.130Z,23.60
2023-09-23T00:38:48.058Z,23.60
2023-09-23T00:41:17.351Z,23.60
2023-09-23T00:43:48.907Z,23.60
2023-09-23T00:46:22.848Z,23.60
2023-09-23T00:48:53.062Z,23.50
2023-09-23T00:51:22.668Z,23.50
2023-09-23T00:53:53.262Z,23.50
2023-09-23T00:56:24.644Z,23.50
2023-09-23T00:58:53.464Z,23.50
2023-09-23T01:01:23.647Z,23.40
2023-09-23T01:03:52.417Z,23.40
2023-09-23T01:06:23.344Z,23.40
2023-09-23T01:08:53.163Z,23.30
2023-09-23T01:11:21.907Z,23.30
2023-09-23T01:13:53.974Z,23.30
2023-09-23T01:16:25.629Z,23.30
2023-09-23T01:18:55.187Z,23.20
2023-09-23T01:21:24.408Z,23.20
2023-09-23T01:23:54.684Z,23.20
2023-09-23T01:26:24.837Z,23.20
2023-09-23T01:28:53.450Z,23.10
2023-09-23T01:31:23.686Z,23.10
2023-09-23T01:33:52.933Z,23.10
2023-09-23T01:36:21.440Z,23.00
2023-09-23T01:38:51.476Z,23.00
2023-09-23T01:41:21.687Z,23.00
2023-09-23T01:43:51.111Z,23.00
2023-09-23T01:46:19.746Z,22.90
2023-09-23T01:48:48.569Z,22.90
2023-09-23T01:51:18.875Z,22.90
2023-09-23T01:53:47.724Z,22.90
2023-09-23T01:56:16.563Z,22.90
2023-09-23T01:58:47.008Z,22.90
2023-09-23T02:01:14.812Z,22.80
2023-09-23T02:03:44.244Z,22.80
2023-09-23T02:06:12.921Z,22.80
2023-09-23T02:08:42.165Z,22.80
2023-09-23T02:11:10.873Z,22.80
2023-09-23T02:13:42.474Z,22.70
2023-09-23T02:16:12.797Z,22.70
2023-09-23T02:18:42.887Z,22.70
2023-09-23T02:21:14.509Z,22.70
2023-09-23T02:23:43.242Z,22.70
2023-09-23T02:26:12.713Z,22.70
2023-09-23T02:28:41.785Z,22.70
2023-09-23T02:31:12.011Z,22.60
2023-09-23T02:33:41.045Z,22.60
2023-09-23T02:36:09.821Z,22.60
2023-09-23T02:38:38.644Z,22.60
2023-09-23T02:41:08.084Z,22.50
2023-09-23T02:43:37.119Z,22.50
2023-09-23T02:46:07.371Z,22.50
2023-09-23T02:48:37.666Z,22.40
2023-09-23T02:51:06.082Z,22.40
2023-09-23T02:53:34.709Z,22.50
2023-09-23T02:56:10.308Z,22.40
2023-09-23T02:58:39.742Z,22.40
2023-09-23T03:01:11.221Z,22.40
2023-09-23T03:03:42.245Z,22.40
2023-09-23T03:06:12.381Z,22.40
2023-09-23T03:08:45.128Z,22.30
2023-09-23T03:11:19.199Z,22.30
2023-09-23T03:13:48.032Z,22.30
2023-09-23T03:16:29.443Z,22.30
2023-09-23T03:19:12.065Z,22.30
2023-09-23T03:21:44.186Z,22.30
2023-09-23T03:24:13.018Z,22.20
2023-09-23T03:26:42.236Z,22.20
2023-09-23T03:29:11.296Z,22.20
2023-09-23T03:31:40.638Z,22.20
2023-09-23T03:34:14.303Z,22.20
2023-09-23T03:36:43.548Z,22.20
2023-09-23T03:39:12.341Z,22.20
2023-09-23T03:41:41.338Z,22.20
2023-09-23T03:44:09.884Z,22.20
2023-09-23T03:46:38.908Z,22.20
2023-09-23T03:49:07.718Z,22.10
2023-09-23T03:51:38.577Z,22.10
2023-09-23T03:54:08.218Z,22.10
2023-09-23T03:56:36.858Z,22.10
2023-09-23T03:59:07.185Z,22.10
2023-09-23T04:01:38.238Z,22.10
2023-09-23T04:04:08.516Z,22.10
2023-09-23T04:06:38.757Z,22.10
2023-09-23T04:09:11.483Z,22.10
2023-09-23T04:11:39.929Z,22.10
2023-09-23T04:14:08.770Z,22.10
2023-09-23T04:16:37.465Z,22.10
2023-09-23T04:19:07.718Z,22.10
2023-09-23T04:21:37.723Z,22.00
2023-09-23T04:24:08.197Z,22.00
2023-09-23T04:26:37.010Z,22.00
2023-09-23T04:29:05.926Z,22.00
2023-09-23T04:31:34.748Z,21.90
2023-09-23T04:34:03.492Z,21.90
2023-09-23T04:36:31.981Z,21.90
2023-09-23T04:39:23.589Z,21.90
2023-09-23T04:41:52.437Z,21.90
2023-09-23T04:44:22.372Z,21.90
2023-09-23T04:46:54.952Z,21.90
2023-09-23T04:49:23.819Z,21.90
2023-09-23T04:51:58.741Z,21.90
2023-09-23T04:54:28.937Z,21.90
2023-09-23T04:57:11.427Z,21.90
2023-09-23T04:59:45.189Z,21.90
2023-09-23T05:02:26.465Z,21.90
2023-09-23T05:04:55.734Z,21.90
2023-09-23T05:07:37.092Z,21.90
2023-09-23T05:10:08.577Z,21.90
2023-09-23T05:12:46.021Z,21.90
2023-09-23T05:15:16.820Z,21.90
2023-09-23T05:17:47.072Z,21.90
2023-09-23T05:20:20.735Z,21.90
2023-09-23T05:23:06.441Z,21.90
2023-09-23T05:25:42.696Z,22.00
2023-09-23T05:28:12.323Z,22.00
2023-09-23T05:30:43.042Z,22.00
2023-09-23T05:33:15.853Z,22.00
2023-09-23T05:35:44.563Z,22.00
2023-09-23T05:38:16.932Z,22.10
2023-09-23T05:41:01.018Z,22.10
2023-09-23T05:43:30.511Z,22.10
2023-09-23T05:45:59.133Z,22.10
2023-09-23T05:48:27.787Z,22.20
2023-09-23T05:51:05.902Z,22.20
2023-09-23T05:53:34.717Z,22.30
2023-09-23T05:56:04.987Z,22.30
2023-09-23T05:58:33.625Z,22.30
2023-09-23T06:01:02.145Z,22.40
2023-09-23T06:03:30.757Z,22.40
2023-09-23T06:05:59.348Z,22.50
2023-09-23T06:08:31.149Z,22.60
2023-09-23T06:11:06.719Z,22.60
2023-09-23T06:14:00.478Z,22.70
2023-09-23T06:16:29.126Z,22.80
2023-09-23T06:18:58.022Z,22.80
2023-09-23T06:21:27.394Z,22.90
2023-09-23T06:23:55.853Z,23.00
2023-09-23T06:26:26.121Z,23.00
2023-09-23T06:28:54.805Z,23.10
2023-09-23T06:31:23.702Z,23.10
2023-09-23T06:33:56.896Z,23.20
2023-09-23T06:36:27.525Z,23.30
2023-09-23T06:38:56.340Z,23.30
2023-09-23T06:41:26.773Z,23.40
2023-09-23T06:43:55.852Z,23.50
2023-09-23T06:46:24.544Z,23.50
2023-09-23T06:48:53.485Z,23.60
2023-09-23T06:51:22.125Z,23.70
2023-09-23T06:53:50.871Z,23.80
2023-09-23T06:56:19.806Z,23.90
2023-09-23T06:58:50.008Z,23.90
2023-09-23T07:01:18.764Z,24.00
2023-09-23T07:03:47.992Z,24.10
2023-09-23T07:06:16.971Z,24.20
2023-09-23T07:08:45.665Z,24.20
2023-09-23T07:11:14.593Z,24.30
2023-09-23T07:13:43.431Z,24.40
2023-09-23T07:16:16.927Z,24.50
2023-09-23T07:18:47.149Z,24.50
2023-09-23T07:21:15.558Z,24.60
2023-09-23T07:23:44.126Z,24.70
2023-09-23T07:26:13.418Z,24.80
2023-09-23T07:28:41.866Z,24.90
2023-09-23T07:31:12.657Z,25.00
2023-09-23T07:33:42.689Z,25.10
2023-09-23T07:36:12.658Z,25.10
2023-09-23T07:38:41.414Z,25.20
2023-09-23T07:41:10.371Z,25.30
2023-09-23T07:43:40.023Z,25.30
2023-09-23T07:46:08.687Z,25.40
2023-09-23T07:48:37.350Z,25.50
2023-09-23T07:51:07.474Z,25.60
2023-09-23T07:53:36.064Z,25.60
2023-09-23T07:56:04.711Z,25.70
2023-09-23T07:58:36.191Z,25.70
2023-09-23T08:01:05.295Z,25.80
2023-09-23T08:03:34.279Z,25.90
2023-09-23T08:06:02.850Z,25.90
2023-09-23T08:08:32.788Z,26.00
2023-09-23T08:11:01.329Z,26.10
2023-09-23T08:13:29.995Z,26.10
2023-09-23T08:16:00.483Z,26.20
2023-09-23T08:18:29.041Z,26.20
2023-09-23T08:21:00.589Z,26.30
2023-09-23T08:23:29.404Z,26.40
2023-09-23T08:26:00.125Z,26.50
2023-09-23T08:28:28.861Z,26.50
2023-09-23T08:30:57.402Z,26.60
2023-09-23T08:33:25.983Z,26.70
2023-09-23T08:35:54.650Z,26.70
2023-09-23T08:38:23.862Z,26.80
2023-09-23T08:40:54.579Z,26.80
2023-09-23T08:43:38.137Z,27.00
2023-09-23T08:46:07.390Z,27.00
2023-09-23T08:48:37.717Z,27.10
2023-09-23T08:51:08.465Z,27.20
2023-09-23T08:53:40.147Z,27.30
2023-09-23T08:56:09.631Z,27.30
2023-09-23T08:58:39.801Z,27.40
2023-09-23T09:01:08.429Z,27.50
2023-09-23T09:03:37.836Z,27.60
2023-09-23T09:30:14.629Z,28.30
2023-09-23T09:32:44.985Z,28.40
2023-09-23T09:35:19.120Z,28.40
2023-09-23T09:37:57.734Z,28.60
2023-09-23T09:40:32.533Z,28.60
2023-09-23T09:43:02.783Z,28.70
2023-09-23T09:45:41.791Z,28.70
2023-09-23T09:48:12.858Z,28.80
2023-09-23T09:50:47.127Z,28.90
2023-09-23T09:53:16.547Z,29.00
2023-09-23T09:55:46.226Z,29.00
2023-09-23T09:58:15.035Z,29.10
2023-09-23T10:00:44.896Z,29.20
2023-09-23T10:03:19.772Z,29.20
2023-09-23T10:05:55.234Z,29.30
2023-09-23T10:08:26.861Z,29.40
2023-09-23T10:11:06.780Z,29.40
2023-09-23T10:13:35.433Z,29.50
2023-09-23T10:16:16.115Z,29.60
2023-09-23T10:18:49.351Z,29.70
2023-09-23T10:21:26.546Z,29.70
2023-09-23T10:24:00.255Z,29.80
2023-09-23T10:26:30.932Z,29.80
2023-09-23T10:29:00.477Z,29.90
2023-09-23T10:31:29.636Z,30.00
2023-09-23T10:33:58.357Z,30.10
2023-09-23T10:36:28.351Z,30.10
2023-09-23T10:38:57.938Z,30.20
2023-09-23T10:41:34.646Z,30.30
2023-09-23T10:44:04.056Z,30.30
2023-09-23T10:46:32.614Z,30.40
2023-09-23T10:49:01.386Z,30.50
2023-09-23T10:51:32.817Z,30.50
2023-09-23T10:54:02.534Z,30.60
2023-09-23T10:56:31.820Z,30.60
2023-09-23T10:59:03.724Z,30.70
2023-09-23T11:01:32.822Z,30.80
2023-09-23T11:04:01.781Z,30.90
2023-09-23T11:06:31.868Z,30.90
2023-09-23T11:09:02.368Z,31.00
2023-09-23T11:11:35.513Z,31.10
2023-09-23T11:14:04.184Z,31.10
2023-09-23T11:16:34.659Z,31.20
2023-09-23T11:19:08.911Z,31.30
2023-09-23T11:21:45.650Z,31.30
2023-09-23T11:24:14.280Z,31.30
2023-09-23T11:26:43.211Z,31.40
2023-09-23T11:29:13.292Z,31.40
2023-09-23T11:31:42.437Z,31.50
2023-09-23T11:34:11.345Z,31.60
2023-09-23T11:36:39.925Z,31.60
2023-09-23T11:39:13.573Z,31.70
2023-09-23T11:41:45.206Z,31.70
2023-09-23T11:44:13.732Z,31.80
2023-09-23T11:46:42.344Z,31.90
2023-09-23T11:49:11.705Z,31.90
2023-09-23T11:51:40.310Z,31.90
2023-09-23T11:54:13.490Z,31.90
2023-09-23T11:56:43.033Z,32.00
2023-09-23T11:59:13.364Z,32.10
2023-09-23T12:01:42.277Z,32.10
2023-09-23T12:04:12.489Z,32.10
2023-09-23T12:06:41.382Z,32.20
2023-09-23T12:09:12.323Z,32.20
2023-09-23T12:11:41.040Z,32.20
2023-09-23T12:14:13.839Z,32.30
2023-09-23T12:16:43.373Z,32.40
2023-09-23T12:19:12.721Z,32.40
2023-09-23T12:21:41.498Z,32.50
2023-09-23T12:24:16.840Z,32.50
2023-09-23T12:26:45.471Z,32.50
2023-09-23T12:29:14.380Z,32.60
2023-09-23T12:31:42.955Z,32.60
2023-09-23T12:34:11.718Z,32.60
2023-09-23T12:36:40.318Z,32.80
2023-09-23T12:39:10.928Z,32.80
2023-09-23T12:41:41.338Z,32.80
2023-09-23T12:44:10.055Z,32.80
2023-09-23T12:46:41.882Z,32.80
2023-09-23T12:49:10.859Z,32.90
2023-09-23T12:51:40.062Z,32.90
2023-09-23T12:54:12.838Z,32.90
2023-09-23T12:56:47.774Z,33.00
2023-09-23T12:59:20.842Z,33.00
2023-09-23T13:01:49.704Z,33.00
2023-09-23T13:04:22.923Z,33.00
2023-09-23T13:06:56.134Z,33.00
2023-09-23T13:09:27.750Z,33.10
2023-09-23T13:12:08.074Z,33.10
2023-09-23T13:14:37.996Z,33.20
2023-09-23T13:17:27.529Z,33.30
2023-09-23T13:19:58.102Z,33.40
2023-09-23T13:22:30.738Z,33.60
2023-09-23T13:25:02.683Z,33.70
2023-09-23T13:27:47.692Z,33.70
2023-09-23T13:30:30.982Z,33.80
2023-09-23T13:33:01.339Z,33.80
2023-09-23T13:35:37.192Z,33.80
2023-09-23T13:38:17.243Z,33.90
2023-09-23T13:40:50.674Z,34.10
2023-09-23T13:43:47.862Z,34.40
2023-09-23T13:46:16.521Z,35.10
2023-09-23T13:48:46.742Z,35.30
2023-09-23T13:51:16.377Z,35.50
2023-09-23T13:53:46.032Z,36.10
2023-09-23T13:56:14.739Z,36.00
2023-09-23T13:58:44.664Z,35.50
2023-09-23T14:01:13.314Z,35.20
2023-09-23T14:03:41.779Z,35.00
2023-09-23T14:06:10.897Z,34.80
2023-09-23T14:08:39.737Z,34.60
2023-09-23T14:11:08.211Z,34.50
2023-09-23T14:13:36.880Z,34.60
2023-09-23T14:16:09.087Z,34.50
2023-09-23T14:18:37.790Z,34.50
2023-09-23T14:21:06.630Z,34.40
2023-09-23T14:23:35.919Z,34.30
2023-09-23T14:26:05.031Z,34.20
2023-09-23T14:28:33.427Z,34.10
2023-09-23T14:31:02.001Z,34.10
2023-09-23T14:33:32.023Z,34.00
2023-09-23T14:36:01.493Z,33.90
2023-09-23T14:38:30.149Z,33.90
2023-09-23T14:40:59.351Z,33.80
2023-09-23T14:43:27.893Z,33.80
2023-09-23T14:45:56.491Z,33.70
2023-09-23T14:48:25.033Z,33.60
2023-09-23T14:50:54.994Z,33.60
2023-09-23T14:53:23.871Z,33.60
2023-09-23T14:55:53.332Z,33.50
2023-09-23T14:58:21.956Z,33.40
2023-09-23T15:00:50.389Z,33.40
2023-09-23T15:03:19.117Z,33.30
2023-09-23T15:05:47.756Z,33.30
2023-09-23T15:08:17.721Z,33.30
2023-09-23T15:10:46.177Z,33.20
2023-09-23T15:13:14.565Z,33.20
2023-09-23T15:15:43.055Z,33.10
2023-09-23T15:18:12.043Z,33.00
2023-09-23T15:20:40.700Z,33.00
2023-09-23T15:23:11.960Z,32.90
2023-09-23T15:25:41.857Z,32.90
2023-09-23T15:28:10.546Z,32.80
2023-09-23T15:30:40.121Z,32.70
2023-09-23T15:33:08.973Z,32.70
2023-09-23T15:35:37.755Z,32.60
2023-09-23T15:38:06.666Z,32.60
2023-09-23T15:40:35.379Z,32.50
2023-09-23T15:43:05.687Z,32.40
2023-09-23T15:45:34.208Z,32.40
2023-09-23T15:48:03.954Z,32.30
2023-09-23T15:50:32.604Z,32.30
2023-09-23T15:53:01.235Z,32.20
2023-09-23T15:55:29.869Z,32.10
2023-09-23T15:57:58.719Z,32.00
2023-09-23T16:00:29.027Z,32.00
2023-09-23T16:02:59.816Z,31.90
2023-09-23T16:05:30.614Z,31.80
2023-09-23T16:07:59.287Z,31.70
2023-09-23T16:10:27.877Z,31.70
2023-09-23T16:12:57.041Z,31.60
2023-09-23T16:15:25.578Z,31.50
2023-09-23T16:17:55.833Z,31.50
2023-09-23T16:20:25.004Z,31.40
2023-09-23T16:22:53.504Z,31.30
2023-09-23T16:25:22.095Z,31.20
2023-09-23T16:27:51.016Z,31.10
2023-09-23T16:30:19.603Z,31.00
2023-09-23T16:32:48.320Z,30.90
2023-09-23T16:35:18.983Z,30.90
2023-09-23T16:37:47.882Z,30.80
2023-09-23T16:40:16.390Z,30.70
2023-09-23T16:42:47.446Z,30.60
2023-09-23T16:45:16.163Z,30.50
2023-09-23T16:47:45.333Z,30.50
2023-09-23T16:50:14.251Z,30.40
2023-09-23T16:52:44.462Z,30.30
2023-09-23T16:55:13.071Z,30.30
2023-09-23T16:57:41.897Z,30.20
2023-09-23T17:00:12.284Z,30.10
2023-09-23T18:25:29.762Z,28.50
2023-09-23T18:58:25.645Z,28.20
2023-09-23T19:16:33.390Z,28.10
2023-09-23T19:31:59.954Z,27.90
2023-09-23T19:38:41.832Z,27.80
2023-09-23T19:42:22.036Z,27.80
2023-09-23T20:07:46.233Z,27.50
2023-09-23T20:58:39.910Z,27.00
2023-09-23T21:01:14.328Z,26.90
2023-09-23T21:03:43.310Z,26.90
2023-09-23T21:06:12.152Z,26.90
2023-09-23T21:08:41.302Z,26.80
2023-09-23T21:11:10.257Z,26.80
2023-09-23T21:13:39.898Z,26.80
2023-09-23T21:16:10.688Z,26.70
2023-09-23T21:18:41.027Z,26.70
2023-09-23T21:21:09.604Z,26.70
2023-09-23T21:23:38.071Z,26.60
2023-09-23T21:26:10.466Z,26.60
2023-09-23T21:28:39.984Z,26.60
2023-09-23T21:31:08.463Z,26.50
2023-09-23T21:33:37.128Z,26.50
2023-09-23T21:36:08.616Z,26.40
2023-09-23T21:38:37.486Z,26.40
2023-09-23T21:41:06.515Z,26.40
2023-09-23T21:43:35.036Z,26.30
2023-09-23T21:46:03.633Z,26.30
2023-09-23T21:48:32.379Z,26.30
2023-09-23T21:51:02.659Z,26.20
2023-09-23T21:53:32.565Z,26.20
2023-09-23T21:56:02.031Z,26.10
2023-09-23T21:58:31.601Z,26.10
2023-09-23T22:01:02.996Z,26.00
2023-09-23T22:03:33.120Z,26.00
2023-09-23T22:06:02.478Z,25.90
2023-09-23T22:08:32.818Z,25.90
2023-09-23T22:11:01.977Z,25.80
2023-09-23T22:13:32.530Z,25.80
2023-09-23T22:16:01.482Z,25.70
2023-09-23T22:18:30.307Z,25.70
2023-09-23T22:20:59.476Z,25.60
2023-09-23T22:23:30.672Z,25.60
2023-09-23T22:26:00.911Z,25.50
2023-09-23T22:28:29.624Z,25.50
2023-09-23T22:30:58.258Z,25.40
2023-09-23T22:33:27.250Z,25.40
2023-09-23T22:35:55.981Z,25.40
2023-09-23T22:38:24.846Z,25.30
2023-09-23T22:40:53.410Z,25.30
2023-09-23T22:43:23.732Z,25.30
2023-09-23T22:45:52.343Z,25.30
2023-09-23T22:48:21.080Z,25.20
2023-09-23T22:50:49.848Z,25.10
2023-09-23T22:53:18.881Z,25.10
2023-09-23T22:55:47.701Z,25.10
2023-09-23T22:58:16.674Z,25.00
2023-09-23T23:00:48.256Z,25.00
2023-09-23T23:03:16.890Z,25.00
2023-09-23T23:05:45.504Z,25.00
2023-09-23T23:08:14.303Z,24.90
2023-09-23T23:10:42.884Z,24.90
2023-09-23T23:13:11.600Z,24.80
2023-09-23T23:15:40.534Z,24.80
2023-09-23T23:18:11.006Z,24.80
2023-09-23T23:20:40.926Z,24.70
2023-09-23T23:23:10.884Z,24.70
2023-09-23T23:25:39.865Z,24.60
2023-09-23T23:28:08.696Z,24.60
2023-09-23T23:30:38.963Z,24.60
2023-09-23T23:33:07.752Z,24.60
2023-09-23T23:35:39.673Z,24.60
2023-09-23T23:38:08.242Z,24.50
2023-09-23T23:40:36.884Z,24.50
2023-09-23T23:43:06.749Z,24.40
2023-09-23T23:45:35.569Z,24.40
2023-09-23T23:48:04.736Z,24.40
2023-09-23T23:50:33.259Z,24.30
2023-09-23T23:53:04.015Z,24.30
2023-09-23T23:55:32.811Z,24.20
2023-09-23T23:58:01.448Z,24.20
